Flight Track Log - Related Links

Times and Time Zones

All times are in EDT time to prevent confusion due to time zone crossing. See the N100PM flight status page for this flight to view local times or setup timezone preferences in your user account.


Time Position Orientation Groundspeed Altitude Reporting Facility
EDT Latitude Longitude Course Direction KTS MPH feet Rate Location/Type
Fri 03:13:16 PM 26.6717 -80.7633 232° Southwest 89 102 3,800  Level Miami Center
Fri 03:14:18 PM 26.6553 -80.7872 232° Southwest 90 104 4,100 194 Climbing Miami Center
Fri 03:15:20 PM 26.6414 -80.8178 243° Southwest 102 117 4,200  Climbing Miami Center
Fri 03:16:22 PM 26.6275 -80.8481 243° Southwest 106 122 4,100 -48 Descending Miami Center
Fri 03:17:24 PM 26.6117 -80.8786 240° Southwest 109 125 4,100  Level Miami Center
Fri 03:18:25 PM 26.5956 -80.9036 234° Southwest 106 122 4,100 -49 Level Miami Center
Fri 03:19:27 PM 26.5789 -80.9314 236° Southwest 105 121 4,000  Descending Miami Center
Fri 03:20:29 PM 26.5611 -80.9581 233° Southwest 104 120 4,100 48 Climbing Miami Center
Fri 03:21:31 PM 26.5453 -80.9883 240° Southwest 106 122 4,100 -48 Level Miami Center
Fri 03:22:33 PM 26.5361 -81.0236 254° West 112 129 4,000  Descending Miami Center
Fri 03:23:34 PM 26.5250 -81.0542 248° West 110 127 4,100 49 Climbing Miami Center
Fri 03:24:36 PM 26.5117 -81.0844 244° Southwest 112 129 4,100  Level Miami Center
Fri 03:25:38 PM 26.4986 -81.1197 248° West 112 129 4,100  Level Miami Center
Fri 03:26:40 PM 26.4872 -81.1489 246° West 108 124 4,100  Level Miami Center
Fri 03:27:42 PM 26.4733 -81.1836 246° West 113 130 4,100  Level Miami Center
Fri 03:28:44 PM 26.4578 -81.2119 238° Southwest 110 127 4,100 -244 Level Miami Center
Fri 03:29:45 PM 26.4436 -81.2461 245° Southwest 111 128 3,600 -488 Descending Miami Center
Fri 03:30:47 PM 26.4297 -81.2783 244° Southwest 114 131 3,100 -242 Descending Miami Center
Fri 03:31:49 PM 26.4172 -81.3128 248° West 114 131 3,100  Level Miami Center
Fri 03:32:51 PM 26.4072 -81.3439 250° West 108 124 3,100  Level Miami Center
Fri 03:33:53 PM 26.3967 -81.3781 251° West 109 125 3,100  Level Miami Center
Fri 03:34:55 PM 26.3817 -81.4089 242° Southwest 111 128 3,100  Level Miami Center
Fri 03:35:56 PM 26.3669 -81.4417 243° Southwest 111 128 3,100  Level Miami Center
Fri 03:36:58 PM 26.3539 -81.4736 245° Southwest 111 128 3,100 -290 Level Miami Center
Fri 03:38:00 PM 26.3406 -81.5092 247° West 113 130 2,500 -435 Descending Miami Center
Fri 03:39:02 PM 26.3283 -81.5414 247° West 114 131 2,200 -145 Descending Miami Center
Fri 03:40:04 PM 26.3142 -81.5733 244° Southwest 111 128 2,200 48 Level Miami Center
Fri 03:41:06 PM 26.3025 -81.6014 245° Southwest 103 119 2,300  Climbing Miami Center
Fri 03:42:08 PM 26.2850 -81.6294 235° Southwest 103 119 2,200 -195 Descending Miami Center
Fri 03:43:09 PM 26.2653 -81.6536 228° Southwest 106 122 1,900 -195 Descending Miami Center
Fri 03:44:11 PM 26.2436 -81.6775 225° Southwest 105 121 1,800 -97 Descending Miami Center
Fri 03:45:13 PM 26.2239 -81.6986 224° Southwest 101 116 1,700 -48 Descending Miami Center
Fri 03:46:15 PM 26.2064 -81.7178 225° Southwest 93 107 1,700 -290 Level Miami Center
Fri 03:47:17 PM 26.1872 -81.7397 226° Southwest 93 107 1,100 -581 Descending Miami Center
Fri 03:48:19 PM 26.1681 -81.7603 224° Southwest 92 106 500 -339 Descending Miami Center
Fri 03:49:21 PM 26.1494 -81.7803 224° Southwest 92 106 400 -97 Descending Miami Center
Fri 03:51:00 PM 26.1500 -81.7667 North  Level FlightAware Approximate

Login

Don't have an account? Register now (free) for customized features, flight alerts, and more!